Weather History for Fosston, MN

Change the Weather History Date:

Wednesday, October 13, 2010

  Actual Average Record
Temperature  
Mean Temperature 46 °F -  
Max Temperature 62 °F 55 °F 82 °F (1956)
Min Temperature 30 °F 33 °F 0 °F (1996)
Degree Days  
Heating Degree Days 19    
Moisture  
Dew Point 31 °F    
Average Humidity 63    
Maximum Humidity 93    
Minimum Humidity 29    
Precipitation  
Precipitation 0.00 in - - ()
Sea Level Pressure  
Sea Level Pressure 30.16 in    
Wind  
Wind Speed 4 mph (WSW)    
Max Wind Speed 18 mph    
Max Gust Speed 23 mph    
Visibility 10 miles    
Events      
Averages and records for this station are not official NWS values.
T = Trace of Precipitation, MM = Missing Value Source: NWS Daily Summary

Daily Weather History Graph

Daily Weather History Graph

Search for Another Location

Airport:

Trip Planner

Search our weather history database for the weather conditions in past years. The results will help you decide how hot, cold, wet, or windy it might be!

Date:

Astronomy

Oct. 13, 2010 Rise Set
Actual Time 7:39 AM CDT 6:38 PM CDT
Civil Twilight 7:08 AM CDT 7:09 PM CDT
Nautical Twilight 6:32 AM CDT 7:45 PM CDT
Astronomical Twilight 5:56 AM CDT 8:20 PM CDT
Moon 2:20 PM CDT (10/13) 10:59 PM CDT (10/13)
Length of Visible Light 12h 01m
Length of Day
10h 59m
Waxing Crescent, 38% of the Moon is Illuminated
Oct 13
Waxing Crescent
Oct 14
First Quarter
Oct 22
Full
Oct 30
Last Quarter
Nov 5
New

Hourly Weather History & Observations

Time (CDT) Temp. Windchill Dew Point Humidity Pressure Visibility Wind Dir Wind Speed Gust Speed Precip Events Conditions
12:13 AM 37.4 °F - 30.2 °F 75% 30.12 in 10.0 mi Calm Calm - N/A   Clear
12:33 AM 35.6 °F - 30.2 °F 81% 30.13 in 10.0 mi Calm Calm - N/A   Clear
12:53 AM 37.4 °F - 30.2 °F 75% 30.13 in 10.0 mi Calm Calm - N/A   Clear
1:13 AM 35.6 °F - 30.2 °F 81% 30.13 in 10.0 mi Calm Calm - N/A   Clear
1:33 AM 35.6 °F - 28.4 °F 75% 30.13 in 10.0 mi Calm Calm - N/A   Clear
1:53 AM 35.6 °F - 26.6 °F 70% 30.13 in 10.0 mi Calm Calm - N/A   Clear
2:13 AM 33.8 °F - 28.4 °F 81% 30.14 in 10.0 mi Calm Calm - N/A   Clear
2:33 AM 33.8 °F - 30.2 °F 87% 30.14 in 10.0 mi Calm Calm - N/A   Clear
2:53 AM 33.8 °F - 30.2 °F 87% 30.14 in 10.0 mi Calm Calm - N/A   Clear
3:13 AM 33.8 °F 29.6 °F 30.2 °F 87% 30.14 in 10.0 mi SSW 4.6 mph - N/A   Clear
3:33 AM 33.8 °F 28.6 °F 30.2 °F 87% 30.14 in 10.0 mi SSW 5.8 mph - N/A   Clear
3:53 AM 33.8 °F 29.6 °F 30.2 °F 87% 30.14 in 10.0 mi SSW 4.6 mph - N/A   Clear
4:13 AM 33.8 °F 28.6 °F 30.2 °F 87% 30.14 in 10.0 mi South 5.8 mph - N/A   Clear
4:33 AM 33.8 °F 29.6 °F 30.2 °F 87% 30.14 in 10.0 mi SSW 4.6 mph - N/A   Clear
4:53 AM 32.0 °F - 30.2 °F 93% 30.14 in 10.0 mi Calm Calm - N/A   Clear
5:13 AM 32.0 °F - 30.2 °F 93% 30.14 in 10.0 mi Calm Calm - N/A   Clear
5:33 AM 32.0 °F 27.5 °F 30.2 °F 93% 30.15 in 10.0 mi SSW 4.6 mph - N/A   Clear
5:53 AM 30.2 °F 24.3 °F 28.4 °F 93% 30.16 in 10.0 mi SSW 5.8 mph - N/A   Clear
6:13 AM 30.2 °F 25.4 °F 28.4 °F 93% 30.16 in 10.0 mi SSW 4.6 mph - N/A   Clear
6:33 AM 30.2 °F 24.3 °F 28.4 °F 93% 30.17 in 10.0 mi South 5.8 mph - N/A   Clear
6:53 AM 30.2 °F 25.4 °F 28.4 °F 93% 30.17 in 10.0 mi SSW 4.6 mph - N/A   Clear
7:13 AM 30.2 °F 24.3 °F 28.4 °F 93% 30.17 in 10.0 mi SSW 5.8 mph - N/A   Clear
7:33 AM 30.2 °F 25.4 °F 28.4 °F 93% 30.18 in 10.0 mi SSW 4.6 mph - N/A   Clear
7:53 AM 30.2 °F 24.3 °F 28.4 °F 93% 30.18 in 10.0 mi SSW 5.8 mph - N/A   Clear
8:13 AM 32.0 °F 28.7 °F 30.2 °F 93% 30.19 in 10.0 mi South 3.5 mph - N/A   Clear
8:33 AM 33.8 °F 30.8 °F 32.0 °F 93% 30.19 in 10.0 mi South 3.5 mph - N/A   Clear
8:53 AM 37.4 °F 32.1 °F 33.8 °F 87% 30.20 in 10.0 mi SW 6.9 mph - N/A   Clear
9:13 AM 39.2 °F 35.0 °F 35.6 °F 87% 30.20 in 10.0 mi SW 5.8 mph - N/A   Clear
9:33 AM 42.8 °F 39.3 °F 35.6 °F 76% 30.21 in 10.0 mi WSW 5.8 mph - N/A   Clear
9:53 AM 44.6 °F 41.4 °F 35.6 °F 71% 30.21 in 10.0 mi SW 5.8 mph - N/A   Clear
10:13 AM 46.4 °F 42.9 °F 37.4 °F 71% 30.21 in 10.0 mi WSW 6.9 mph - N/A   Clear
10:33 AM 50.0 °F - 37.4 °F 62% 30.21 in 10.0 mi West 6.9 mph - N/A   Clear
10:53 AM 51.8 °F - 35.6 °F 54% 30.21 in 10.0 mi West 4.6 mph - N/A   Clear
11:13 AM 53.6 °F - 35.6 °F 51% 30.20 in 10.0 mi West 6.9 mph - N/A   Clear
11:33 AM 55.4 °F - 35.6 °F 47% 30.20 in 10.0 mi West 5.8 mph - N/A   Clear
11:53 AM 57.2 °F - 35.6 °F 44% 30.20 in 5.0 mi West 6.9 mph - N/A   Haze
12:13 PM 57.2 °F - 35.6 °F 44% 30.20 in 10.0 mi West 13.8 mph - N/A   Clear
12:33 PM 59.0 °F - 32.0 °F 36% 30.19 in 10.0 mi WNW 12.7 mph 19.6 mph N/A   Clear
12:53 PM 60.8 °F - 33.8 °F 36% 30.19 in 10.0 mi West 12.7 mph 18.4 mph N/A   Clear
1:13 PM 60.8 °F - 32.0 °F 34% 30.19 in 7.0 mi West 15.0 mph 20.7 mph N/A   Clear
1:33 PM 60.8 °F - 32.0 °F 34% 30.18 in 10.0 mi West 15.0 mph 19.6 mph N/A   Clear
1:53 PM 62.6 °F - 30.2 °F 30% 30.17 in 10.0 mi West 18.4 mph 23.0 mph N/A   Clear
2:13 PM 60.8 °F - 28.4 °F 29% 30.17 in 10.0 mi WNW 15.0 mph 21.9 mph N/A   Clear
2:33 PM 60.8 °F - 28.4 °F 29% 30.16 in 10.0 mi West 13.8 mph 19.6 mph N/A   Clear
2:53 PM 60.8 °F - 28.4 °F 29% 30.16 in 10.0 mi West 11.5 mph - N/A   Clear
3:13 PM 60.8 °F - 28.4 °F 29% 30.15 in 10.0 mi NW 15.0 mph 21.9 mph N/A   Clear
3:33 PM 60.8 °F - 28.4 °F 29% 30.16 in 10.0 mi WNW 11.5 mph 21.9 mph N/A   Clear
3:53 PM 60.8 °F - 28.4 °F 29% 30.16 in 10.0 mi West 17.3 mph 23.0 mph N/A   Clear
4:13 PM 60.8 °F - 28.4 °F 29% 30.15 in 10.0 mi West 15.0 mph 19.6 mph N/A   Clear
4:33 PM 60.8 °F - 28.4 °F 29% 30.15 in 10.0 mi WNW 13.8 mph 17.3 mph N/A   Clear
4:53 PM 60.8 °F - 30.2 °F 31% 30.15 in 10.0 mi West 13.8 mph 19.6 mph N/A   Clear
5:13 PM 60.8 °F - 28.4 °F 29% 30.14 in 10.0 mi WNW 10.4 mph 18.4 mph N/A   Clear
5:33 PM 59.0 °F - 28.4 °F 31% 30.14 in 10.0 mi WNW 9.2 mph - N/A   Clear
5:53 PM 57.2 °F - 30.2 °F 36% 30.14 in 10.0 mi WNW 6.9 mph - N/A   Clear
6:13 PM 55.4 °F - 30.2 °F 38% 30.13 in 10.0 mi Calm Calm - N/A   Clear
6:33 PM 51.8 °F - 30.2 °F 44% 30.13 in 10.0 mi Calm Calm - N/A   Clear
6:53 PM 48.2 °F - 30.2 °F 50% 30.13 in 10.0 mi Calm Calm - N/A   Clear
7:13 PM 46.4 °F - 28.4 °F 50% 30.13 in 10.0 mi Calm Calm - N/A   Clear
7:33 PM 44.6 °F - 28.4 °F 53% 30.13 in 10.0 mi Calm Calm - N/A   Clear
7:53 PM 42.8 °F 40.1 °F 30.2 °F 61% 30.13 in 10.0 mi SW 4.6 mph - N/A   Clear
8:14 PM 42.8 °F 39.3 °F 30.2 °F 61% 30.12 in 10.0 mi SW 5.8 mph - N/A   Clear
8:33 PM 41.0 °F 35.8 °F 30.2 °F 65% 30.12 in 10.0 mi SSW 8.1 mph - N/A   Clear
9:13 PM 42.8 °F 39.3 °F 30.2 °F 61% 30.11 in 10.0 mi SW 5.8 mph - N/A   Clear
9:33 PM 42.8 °F 40.1 °F 30.2 °F 61% 30.10 in 10.0 mi SW 4.6 mph - N/A   Clear
9:53 PM 39.2 °F 35.9 °F 30.2 °F 70% 30.10 in 10.0 mi SSW 4.6 mph - N/A   Clear
10:13 PM 39.2 °F 35.9 °F 30.2 °F 70% 30.09 in 10.0 mi South 4.6 mph - N/A   Clear
10:33 PM 37.4 °F 32.1 °F 30.2 °F 75% 30.09 in 10.0 mi South 6.9 mph - N/A   Clear
10:53 PM 37.4 °F 32.1 °F 30.2 °F 75% 30.08 in 10.0 mi South 6.9 mph - N/A   Clear
11:13 PM 37.4 °F 32.1 °F 30.2 °F 75% 30.08 in 10.0 mi South 6.9 mph - N/A   Clear
11:33 PM 37.4 °F 32.1 °F 30.2 °F 75% 30.07 in 10.0 mi South 6.9 mph - N/A   Clear
11:53 PM 37.4 °F 32.1 °F 30.2 °F 75% 30.07 in 10.0 mi South 6.9 mph - N/A   Clear